Mehmet Bey — 9HUD6 — position and weather

sailwx.info

Track history (hours):
 
Tides and Currents Weather Stations Pressure Air Temp Water Temp Dewpoint Dewpoint Depression Visibility Wind Speed Wind Dir Waves Ship Positions

Mehmet Bey

Last reported at 2015-Mar-30 05:31 UTC. Time now 2015-Mar-31 22:04 UTC.
Position N 44°23' E 035°36'.

Length 131 m; draft 5 m.

Type: Cargo ship. MMSI: 248864000.

Date/timePositionNaut miles runAvg speedWind from/ knotsBaromVisibWave heightAir tempDewpointWater temp
2015-Mar-30 05:31N 44°23' E 035°36'7 7.0
2015-Mar-30 04:33N 44°19' E 035°28'8 7.7
2015-Mar-30 03:32N 44°15' E 035°19'9 8.8
2015-Mar-30 02:33N 44°10' E 035°09'9 8.8
2015-Mar-30 01:33N 44°05' E 034°59'9 9.1
2015-Mar-30 00:33N 44°00' E 034°48'10 9.2
2015-Mar-29 23:25N 43°55' E 034°36'11 9.3
2015-Mar-29 22:16N 43°49' E 034°24'252 9.4
2015-Mar-28 19:33N 41°29' E 029°39'1010.2
2015-Mar-28 18:33N 41°24' E 029°27'1010.3
2015-Mar-28 17:33N 41°18' E 029°16'24 7.9
2015-Mar-28 14:33N 40°58' E 028°59'4 4.0
2015-Mar-28 13:32N 40°56' E 028°54'3 1.4
2015-Mar-28 11:33N 40°59' E 028°55'0 0.0
2015-Mar-28 07:33N 40°59' E 028°55'0 0.0
2015-Mar-28 05:15N 40°59' E 028°55'0 0.0
2015-Mar-28 04:27N 40°59' E 028°55'0 0.0
2015-Mar-28 03:33N 40°59' E 028°55'0 0.0
2015-Mar-28 02:09N 40°59' E 028°55'0 0.0
2015-Mar-28 01:15N 40°59' E 028°55'0 0.0
2015-Mar-28 00:15N 40°59' E 028°55'0 0.1
2015-Mar-27 23:15N 40°59' E 028°55'0 0.0
2015-Mar-27 22:09N 40°59' E 028°55'0 0.1
2015-Mar-27 21:33N 40°59' E 028°55'0 0.0
2015-Mar-27 19:21N 40°59' E 028°55'0 0.0
2015-Mar-27 18:33N 40°59' E 028°55'0 0.0
2015-Mar-27 17:21N 40°59' E 028°55'0 0.0
2015-Mar-27 16:33N 40°59' E 028°55'0 0.0
2015-Mar-27 15:09N 40°59' E 028°55'0 0.0
2015-Mar-27 14:21N 40°59' E 028°55'0 0.1
2015-Mar-27 13:33N 40°59' E 028°55'0 0.1
2015-Mar-27 12:27N 40°59' E 028°55'0 0.0
2015-Mar-27 11:33N 40°59' E 028°55'0 0.0
2015-Mar-27 10:33N 40°59' E 028°55'0 0.0
2015-Mar-27 09:15N 40°59' E 028°55'0 0.0
2015-Mar-26 16:30N 40°59' E 028°55'0 0.0
2015-Mar-26 15:30N 40°59' E 028°55'0 0.0
2015-Mar-26 10:06N 40°59' E 028°55'0 0.1
2015-Mar-26 09:06N 40°59' E 028°55'0 0.0
2015-Mar-26 08:24N 40°59' E 028°55'0 0.0
2015-Mar-26 07:06N 40°59' E 028°55'0 0.1
2015-Mar-26 06:12N 40°59' E 028°55'0 0.0
2015-Mar-26 05:30N 40°59' E 028°55'0 0.1
2015-Mar-26 04:06N 40°59' E 028°55'0 0.0
2015-Mar-26 03:30N 40°59' E 028°55'0 0.1
2015-Mar-26 02:18N 40°59' E 028°55'0 0.0
2015-Mar-26 01:30N 40°59' E 028°55'0 0.0
2015-Mar-26 00:24N 40°59' E 028°55'0 0.0
2015-Mar-25 23:30N 40°59' E 028°55'0 0.0
2015-Mar-25 22:24N 40°59' E 028°55'0 0.0
2015-Mar-25 21:24N 40°59' E 028°55'0 0.0
2015-Mar-25 20:21N 40°59' E 028°55'0 0.0
2015-Mar-25 19:33N 40°59' E 028°55'0 0.0
2015-Mar-25 17:27N 40°59' E 028°55'0 0.0
2015-Mar-25 16:21N 40°59' E 028°55'1 1.1
2015-Mar-25 15:34N 40°58' E 028°56'7 6.6
2015-Mar-25 14:34N 40°52' E 028°53'19 0.8
2015-Mar-24 14:14N 40°50' E 029°18'  
Track history (hours):
 
Tides and Currents Weather Stations Pressure Air Temp Water Temp Dewpoint Dewpoint Depression Visibility Wind Speed Wind Dir Waves Ship Positions

Mehmet Bey

Last reported at 2015-Mar-30 05:31 UTC. Time now 2015-Mar-31 22:04 UTC.
Position N 44°23' E 035°36'.

Length 131 m; draft 5 m.

Type: Cargo ship. MMSI: 248864000.

Date/timePositionNaut miles runAvg speedWind from/ knotsBaromVisibWave heightAir tempDewpointWater temp
2015-Mar-30 05:31N 44°23' E 035°36'7 7.0
2015-Mar-30 04:33N 44°19' E 035°28'8 7.7
2015-Mar-30 03:32N 44°15' E 035°19'9 8.8
2015-Mar-30 02:33N 44°10' E 035°09'9 8.8
2015-Mar-30 01:33N 44°05' E 034°59'9 9.1
2015-Mar-30 00:33N 44°00' E 034°48'10 9.2
2015-Mar-29 23:25N 43°55' E 034°36'11 9.3
2015-Mar-29 22:16N 43°49' E 034°24'252 9.4
2015-Mar-28 19:33N 41°29' E 029°39'1010.2
2015-Mar-28 18:33N 41°24' E 029°27'1010.3
2015-Mar-28 17:33N 41°18' E 029°16'24 7.9
2015-Mar-28 14:33N 40°58' E 028°59'4 4.0
2015-Mar-28 13:32N 40°56' E 028°54'3 1.4
2015-Mar-28 11:33N 40°59' E 028°55'0 0.0
2015-Mar-28 07:33N 40°59' E 028°55'0 0.0
2015-Mar-28 05:15N 40°59' E 028°55'0 0.0
2015-Mar-28 04:27N 40°59' E 028°55'0 0.0
2015-Mar-28 03:33N 40°59' E 028°55'0 0.0
2015-Mar-28 02:09N 40°59' E 028°55'0 0.0
2015-Mar-28 01:15N 40°59' E 028°55'0 0.0
2015-Mar-28 00:15N 40°59' E 028°55'0 0.1
2015-Mar-27 23:15N 40°59' E 028°55'0 0.0
2015-Mar-27 22:09N 40°59' E 028°55'0 0.1
2015-Mar-27 21:33N 40°59' E 028°55'0 0.0
2015-Mar-27 19:21N 40°59' E 028°55'0 0.0
2015-Mar-27 18:33N 40°59' E 028°55'0 0.0
2015-Mar-27 17:21N 40°59' E 028°55'0 0.0
2015-Mar-27 16:33N 40°59' E 028°55'0 0.0
2015-Mar-27 15:09N 40°59' E 028°55'0 0.0
2015-Mar-27 14:21N 40°59' E 028°55'0 0.1
2015-Mar-27 13:33N 40°59' E 028°55'0 0.1
2015-Mar-27 12:27N 40°59' E 028°55'0 0.0
2015-Mar-27 11:33N 40°59' E 028°55'0 0.0
2015-Mar-27 10:33N 40°59' E 028°55'0 0.0
2015-Mar-27 09:15N 40°59' E 028°55'0 0.0
2015-Mar-26 16:30N 40°59' E 028°55'0 0.0
2015-Mar-26 15:30N 40°59' E 028°55'0 0.0
2015-Mar-26 10:06N 40°59' E 028°55'0 0.1
2015-Mar-26 09:06N 40°59' E 028°55'0 0.0
2015-Mar-26 08:24N 40°59' E 028°55'0 0.0
2015-Mar-26 07:06N 40°59' E 028°55'0 0.1
2015-Mar-26 06:12N 40°59' E 028°55'0 0.0
2015-Mar-26 05:30N 40°59' E 028°55'0 0.1
2015-Mar-26 04:06N 40°59' E 028°55'0 0.0
2015-Mar-26 03:30N 40°59' E 028°55'0 0.1
2015-Mar-26 02:18N 40°59' E 028°55'0 0.0
2015-Mar-26 01:30N 40°59' E 028°55'0 0.0
2015-Mar-26 00:24N 40°59' E 028°55'0 0.0
2015-Mar-25 23:30N 40°59' E 028°55'0 0.0
2015-Mar-25 22:24N 40°59' E 028°55'0 0.0
2015-Mar-25 21:24N 40°59' E 028°55'0 0.0
2015-Mar-25 20:21N 40°59' E 028°55'0 0.0
2015-Mar-25 19:33N 40°59' E 028°55'0 0.0
2015-Mar-25 17:27N 40°59' E 028°55'0 0.0
2015-Mar-25 16:21N 40°59' E 028°55'1 1.1
2015-Mar-25 15:34N 40°58' E 028°56'7 6.6
2015-Mar-25 14:34N 40°52' E 028°53'19 0.8
2015-Mar-24 14:14N 40°50' E 029°18'  

Dump ship's entire track history